sensor_id;sensor_type;location;lat;lon;timestamp;pressure;altitude;pressure_sealevel;temperature
80422;BMP280;69763;50.182;9.144;2023-06-26T00:01:48;99955.56;;;18.66
80422;BMP280;69763;50.182;9.144;2023-06-26T00:04:15;99946.16;;;18.60
80422;BMP280;69763;50.182;9.144;2023-06-26T00:06:41;99948.31;;;18.52
80422;BMP280;69763;50.182;9.144;2023-06-26T00:09:07;99946.72;;;18.49
80422;BMP280;69763;50.182;9.144;2023-06-26T00:11:34;99943.81;;;18.47
80422;BMP280;69763;50.182;9.144;2023-06-26T00:14:00;99936.84;;;18.46
80422;BMP280;69763;50.182;9.144;2023-06-26T00:16:26;99936.16;;;18.45
80422;BMP280;69763;50.182;9.144;2023-06-26T00:18:52;99937.44;;;18.44
80422;BMP280;69763;50.182;9.144;2023-06-26T00:21:19;99932.94;;;18.39
80422;BMP280;69763;50.182;9.144;2023-06-26T00:23:44;99941.13;;;18.29
80422;BMP280;69763;50.182;9.144;2023-06-26T00:26:10;99936.63;;;18.24
80422;BMP280;69763;50.182;9.144;2023-06-26T00:28:36;99933.47;;;18.18
80422;BMP280;69763;50.182;9.144;2023-06-26T00:31:02;99925.66;;;18.15
80422;BMP280;69763;50.182;9.144;2023-06-26T00:33:27;99931.16;;;18.15
80422;BMP280;69763;50.182;9.144;2023-06-26T00:35:53;99931.72;;;18.13
80422;BMP280;69763;50.182;9.144;2023-06-26T00:38:20;99927.81;;;18.07
80422;BMP280;69763;50.182;9.144;2023-06-26T00:40:46;99936.41;;;18.03
80422;BMP280;69763;50.182;9.144;2023-06-26T00:43:11;99930.94;;;18.03
80422;BMP280;69763;50.182;9.144;2023-06-26T00:45:37;99930.63;;;17.99
80422;BMP280;69763;50.182;9.144;2023-06-26T00:48:03;99936.53;;;17.95
80422;BMP280;69763;50.182;9.144;2023-06-26T00:50:28;99934.69;;;17.98
80422;BMP280;69763;50.182;9.144;2023-06-26T00:52:54;99931.22;;;17.98
80422;BMP280;69763;50.182;9.144;2023-06-26T00:55:21;99930.31;;;17.95
80422;BMP280;69763;50.182;9.144;2023-06-26T00:57:47;99925.97;;;17.92
80422;BMP280;69763;50.182;9.144;2023-06-26T01:00:14;99930.00;;;17.91
80422;BMP280;69763;50.182;9.144;2023-06-26T01:02:40;99927.53;;;17.85
80422;BMP280;69763;50.182;9.144;2023-06-26T01:05:06;99927.94;;;17.82
80422;BMP280;69763;50.182;9.144;2023-06-26T01:07:32;99912.31;;;17.75
80422;BMP280;69763;50.182;9.144;2023-06-26T01:09:58;99914.78;;;17.71
80422;BMP280;69763;50.182;9.144;2023-06-26T01:12:30;99916.78;;;17.70
80422;BMP280;69763;50.182;9.144;2023-06-26T01:14:55;99920.69;;;17.67
80422;BMP280;69763;50.182;9.144;2023-06-26T01:17:21;99923.84;;;17.64
80422;BMP280;69763;50.182;9.144;2023-06-26T01:19:47;99916.28;;;17.55
80422;BMP280;69763;50.182;9.144;2023-06-26T01:22:33;99915.22;;;17.50
80422;BMP280;69763;50.182;9.144;2023-06-26T01:25:08;99912.88;;;17.46
80422;BMP280;69763;50.182;9.144;2023-06-26T01:27:38;99905.25;;;17.45
80422;BMP280;69763;50.182;9.144;2023-06-26T01:30:06;99905.06;;;17.43
80422;BMP280;69763;50.182;9.144;2023-06-26T01:32:33;99901.88;;;17.37
80422;BMP280;69763;50.182;9.144;2023-06-26T01:34:59;99900.97;;;17.34
80422;BMP280;69763;50.182;9.144;2023-06-26T01:37:25;99898.63;;;17.31
80422;BMP280;69763;50.182;9.144;2023-06-26T01:39:50;99897.41;;;17.24
80422;BMP280;69763;50.182;9.144;2023-06-26T01:42:16;99888.50;;;17.24
80422;BMP280;69763;50.182;9.144;2023-06-26T01:44:45;99891.50;;;17.18
80422;BMP280;69763;50.182;9.144;2023-06-26T01:47:16;99896.34;;;17.10
80422;BMP280;69763;50.182;9.144;2023-06-26T01:49:46;99890.53;;;17.06
80422;BMP280;69763;50.182;9.144;2023-06-26T01:52:16;99892.69;;;17.08
80422;BMP280;69763;50.182;9.144;2023-06-26T01:54:55;99885.94;;;17.09
80422;BMP280;69763;50.182;9.144;2023-06-26T01:57:22;99884.91;;;17.04
80422;BMP280;69763;50.182;9.144;2023-06-26T01:59:54;99884.41;;;16.98
80422;BMP280;69763;50.182;9.144;2023-06-26T02:02:20;99895.75;;;16.94
80422;BMP280;69763;50.182;9.144;2023-06-26T02:04:46;99890.69;;;16.91
80422;BMP280;69763;50.182;9.144;2023-06-26T02:07:11;99893.09;;;16.87
80422;BMP280;69763;50.182;9.144;2023-06-26T02:09:37;99898.25;;;16.83
80422;BMP280;69763;50.182;9.144;2023-06-26T02:12:05;99896.06;;;16.81
80422;BMP280;69763;50.182;9.144;2023-06-26T02:14:31;99893.41;;;16.74
80422;BMP280;69763;50.182;9.144;2023-06-26T02:16:58;99893.50;;;16.66
80422;BMP280;69763;50.182;9.144;2023-06-26T02:19:24;99890.59;;;16.64
80422;BMP280;69763;50.182;9.144;2023-06-26T02:21:49;99887.13;;;16.64
80422;BMP280;69763;50.182;9.144;2023-06-26T02:24:15;99892.44;;;16.62
80422;BMP280;69763;50.182;9.144;2023-06-26T02:26:41;99883.00;;;16.55
80422;BMP280;69763;50.182;9.144;2023-06-26T02:29:06;99883.25;;;16.49
80422;BMP280;69763;50.182;9.144;2023-06-26T02:31:32;99883.63;;;16.46
80422;BMP280;69763;50.182;9.144;2023-06-26T02:34:02;99884.19;;;16.44
80422;BMP280;69763;50.182;9.144;2023-06-26T02:36:27;99884.97;;;16.37
80422;BMP280;69763;50.182;9.144;2023-06-26T02:38:53;99894.13;;;16.32
80422;BMP280;69763;50.182;9.144;2023-06-26T02:41:18;99893.63;;;16.26
80422;BMP280;69763;50.182;9.144;2023-06-26T02:43:44;99884.91;;;16.20
80422;BMP280;69763;50.182;9.144;2023-06-26T02:46:10;99895.94;;;16.13
80422;BMP280;69763;50.182;9.144;2023-06-26T02:48:35;99887.75;;;16.05
80422;BMP280;69763;50.182;9.144;2023-06-26T02:51:02;99895.06;;;16.02
80422;BMP280;69763;50.182;9.144;2023-06-26T02:53:28;99893.28;;;15.97
80422;BMP280;69763;50.182;9.144;2023-06-26T02:55:53;99897.00;;;15.85
80422;BMP280;69763;50.182;9.144;2023-06-26T02:58:19;99907.66;;;15.66
80422;BMP280;69763;50.182;9.144;2023-06-26T03:00:45;99897.34;;;15.41
80422;BMP280;69763;50.182;9.144;2023-06-26T03:03:10;99905.44;;;15.16
80422;BMP280;69763;50.182;9.144;2023-06-26T03:05:36;99898.78;;;14.95
80422;BMP280;69763;50.182;9.144;2023-06-26T03:08:03;99902.78;;;14.79
80422;BMP280;69763;50.182;9.144;2023-06-26T03:10:29;99902.25;;;14.65
80422;BMP280;69763;50.182;9.144;2023-06-26T03:12:57;99901.34;;;14.55
80422;BMP280;69763;50.182;9.144;2023-06-26T03:15:23;99898.41;;;14.45
80422;BMP280;69763;50.182;9.144;2023-06-26T03:17:48;99898.41;;;14.38
80422;BMP280;69763;50.182;9.144;2023-06-26T03:20:14;99901.31;;;14.32
80422;BMP280;69763;50.182;9.144;2023-06-26T03:22:39;99899.28;;;14.25
80422;BMP280;69763;50.182;9.144;2023-06-26T03:25:07;99896.72;;;14.19
80422;BMP280;69763;50.182;9.144;2023-06-26T03:27:33;99897.09;;;14.16
80422;BMP280;69763;50.182;9.144;2023-06-26T03:29:58;99897.47;;;14.12
80422;BMP280;69763;50.182;9.144;2023-06-26T03:32:23;99893.81;;;14.10
80422;BMP280;69763;50.182;9.144;2023-06-26T03:34:49;99895.25;;;14.11
80422;BMP280;69763;50.182;9.144;2023-06-26T03:37:15;99896.91;;;14.14
80422;BMP280;69763;50.182;9.144;2023-06-26T03:39:41;99892.16;;;14.14
80422;BMP280;69763;50.182;9.144;2023-06-26T03:42:11;99885.50;;;14.23
80422;BMP280;69763;50.182;9.144;2023-06-26T03:44:36;99895.69;;;14.45
80422;BMP280;69763;50.182;9.144;2023-06-26T03:47:02;99898.41;;;14.68
80422;BMP280;69763;50.182;9.144;2023-06-26T03:49:27;99890.59;;;14.80
80422;BMP280;69763;50.182;9.144;2023-06-26T03:51:53;99889.50;;;14.83
80422;BMP280;69763;50.182;9.144;2023-06-26T03:54:18;99888.41;;;14.86
80422;BMP280;69763;50.182;9.144;2023-06-26T03:56:44;99898.41;;;14.91
80422;BMP280;69763;50.182;9.144;2023-06-26T03:59:11;99882.53;;;15.12
80422;BMP280;69763;50.182;9.144;2023-06-26T04:01:37;99888.47;;;15.33
80422;BMP280;69763;50.182;9.144;2023-06-26T04:04:03;99888.41;;;15.56
80422;BMP280;69763;50.182;9.144;2023-06-26T04:06:28;99879.16;;;15.76
80422;BMP280;69763;50.182;9.144;2023-06-26T04:08:54;99868.16;;;15.91
80422;BMP280;69763;50.182;9.144;2023-06-26T04:11:20;99877.56;;;16.05
80422;BMP280;69763;50.182;9.144;2023-06-26T04:13:45;99869.63;;;16.17
80422;BMP280;69763;50.182;9.144;2023-06-26T04:16:12;99873.19;;;16.27
80422;BMP280;69763;50.182;9.144;2023-06-26T04:18:38;99879.66;;;16.39
80422;BMP280;69763;50.182;9.144;2023-06-26T04:21:06;99877.78;;;16.49
80422;BMP280;69763;50.182;9.144;2023-06-26T04:23:31;99890.31;;;16.52
80422;BMP280;69763;50.182;9.144;2023-06-26T04:25:57;99891.94;;;16.56
80422;BMP280;69763;50.182;9.144;2023-06-26T04:28:26;99897.03;;;16.59
80422;BMP280;69763;50.182;9.144;2023-06-26T04:30:51;99889.88;;;16.64
80422;BMP280;69763;50.182;9.144;2023-06-26T04:33:18;99884.16;;;16.69
80422;BMP280;69763;50.182;9.144;2023-06-26T04:35:44;99882.22;;;16.79
80422;BMP280;69763;50.182;9.144;2023-06-26T04:38:10;99887.22;;;16.90
80422;BMP280;69763;50.182;9.144;2023-06-26T04:40:36;99884.91;;;17.04
80422;BMP280;69763;50.182;9.144;2023-06-26T04:43:02;99888.03;;;17.18
80422;BMP280;69763;50.182;9.144;2023-06-26T04:45:28;99885.66;;;17.31
80422;BMP280;69763;50.182;9.144;2023-06-26T04:47:54;99887.50;;;17.46
80422;BMP280;69763;50.182;9.144;2023-06-26T04:50:21;99879.50;;;17.58
80422;BMP280;69763;50.182;9.144;2023-06-26T04:52:47;99888.66;;;17.70
80422;BMP280;69763;50.182;9.144;2023-06-26T04:55:12;99891.31;;;17.87
80422;BMP280;69763;50.182;9.144;2023-06-26T04:57:38;99900.06;;;18.03
80422;BMP280;69763;50.182;9.144;2023-06-26T05:00:04;99894.34;;;18.18
80422;BMP280;69763;50.182;9.144;2023-06-26T05:02:30;99900.16;;;18.31
80422;BMP280;69763;50.182;9.144;2023-06-26T05:04:59;99899.16;;;18.46
80422;BMP280;69763;50.182;9.144;2023-06-26T05:07:26;99900.94;;;18.61
80422;BMP280;69763;50.182;9.144;2023-06-26T05:09:52;99891.84;;;18.77
80422;BMP280;69763;50.182;9.144;2023-06-26T05:12:21;99891.41;;;18.90
80422;BMP280;69763;50.182;9.144;2023-06-26T05:14:46;99895.00;;;19.12
80422;BMP280;69763;50.182;9.144;2023-06-26T05:17:14;99900.63;;;19.33
80422;BMP280;69763;50.182;9.144;2023-06-26T05:19:39;99894.06;;;19.48
80422;BMP280;69763;50.182;9.144;2023-06-26T05:22:06;99885.97;;;19.60
80422;BMP280;69763;50.182;9.144;2023-06-26T05:24:33;99888.81;;;19.71
80422;BMP280;69763;50.182;9.144;2023-06-26T05:27:01;99892.06;;;19.89
80422;BMP280;69763;50.182;9.144;2023-06-26T05:29:27;99886.06;;;20.02
80422;BMP280;69763;50.182;9.144;2023-06-26T05:31:52;99883.06;;;20.19
80422;BMP280;69763;50.182;9.144;2023-06-26T05:34:22;99872.34;;;20.45
80422;BMP280;69763;50.182;9.144;2023-06-26T05:36:50;99868.47;;;20.59
80422;BMP280;69763;50.182;9.144;2023-06-26T05:39:16;99865.97;;;20.63
80422;BMP280;69763;50.182;9.144;2023-06-26T05:41:45;99866.84;;;20.77
80422;BMP280;69763;50.182;9.144;2023-06-26T05:44:10;99866.78;;;20.99
80422;BMP280;69763;50.182;9.144;2023-06-26T05:46:36;99868.63;;;21.17
80422;BMP280;69763;50.182;9.144;2023-06-26T05:49:02;99873.19;;;21.36
80422;BMP280;69763;50.182;9.144;2023-06-26T05:51:31;99880.44;;;21.64
80422;BMP280;69763;50.182;9.144;2023-06-26T05:54:01;99879.69;;;21.99
80422;BMP280;69763;50.182;9.144;2023-06-26T05:56:27;99883.34;;;22.26
80422;BMP280;69763;50.182;9.144;2023-06-26T05:58:58;99885.34;;;22.37
80422;BMP280;69763;50.182;9.144;2023-06-26T06:01:25;99883.63;;;22.56
80422;BMP280;69763;50.182;9.144;2023-06-26T06:03:50;99889.03;;;22.79
80422;BMP280;69763;50.182;9.144;2023-06-26T06:06:16;99884.59;;;22.99
80422;BMP280;69763;50.182;9.144;2023-06-26T06:08:42;99885.38;;;23.27
80422;BMP280;69763;50.182;9.144;2023-06-26T06:11:07;99886.94;;;23.57
80422;BMP280;69763;50.182;9.144;2023-06-26T06:13:33;99879.81;;;23.79
80422;BMP280;69763;50.182;9.144;2023-06-26T06:16:00;99894.59;;;24.13
80422;BMP280;69763;50.182;9.144;2023-06-26T06:18:26;99882.19;;;24.43
80422;BMP280;69763;50.182;9.144;2023-06-26T06:20:51;99877.72;;;24.81
80422;BMP280;69763;50.182;9.144;2023-06-26T06:23:16;99885.00;;;25.20
80422;BMP280;69763;50.182;9.144;2023-06-26T06:25:42;99881.31;;;25.80
80422;BMP280;69763;50.182;9.144;2023-06-26T06:28:07;99887.63;;;26.33
80422;BMP280;69763;50.182;9.144;2023-06-26T06:30:33;99885.28;;;27.00
80422;BMP280;69763;50.182;9.144;2023-06-26T06:32:59;99873.03;;;27.68
80422;BMP280;69763;50.182;9.144;2023-06-26T06:35:25;99880.75;;;28.15
80422;BMP280;69763;50.182;9.144;2023-06-26T06:37:50;99879.63;;;28.95
80422;BMP280;69763;50.182;9.144;2023-06-26T06:40:16;99871.16;;;30.36
80422;BMP280;69763;50.182;9.144;2023-06-26T06:42:41;99868.13;;;31.37
80422;BMP280;69763;50.182;9.144;2023-06-26T06:45:07;99868.34;;;33.31
80422;BMP280;69763;50.182;9.144;2023-06-26T06:47:33;99866.81;;;35.63
80422;BMP280;69763;50.182;9.144;2023-06-26T06:50:01;99864.66;;;36.87
80422;BMP280;69763;50.182;9.144;2023-06-26T06:52:26;99862.78;;;37.34
80422;BMP280;69763;50.182;9.144;2023-06-26T06:54:52;99863.00;;;38.30
80422;BMP280;69763;50.182;9.144;2023-06-26T06:57:17;99849.44;;;39.18
80422;BMP280;69763;50.182;9.144;2023-06-26T06:59:43;99854.88;;;39.30
80422;BMP280;69763;50.182;9.144;2023-06-26T07:02:08;99853.94;;;39.39
80422;BMP280;69763;50.182;9.144;2023-06-26T07:04:33;99854.34;;;39.19
80422;BMP280;69763;50.182;9.144;2023-06-26T07:07:00;99851.63;;;39.48
80422;BMP280;69763;50.182;9.144;2023-06-26T07:09:25;99846.66;;;39.83
80422;BMP280;69763;50.182;9.144;2023-06-26T07:11:51;99840.81;;;40.20
80422;BMP280;69763;50.182;9.144;2023-06-26T07:14:16;99839.25;;;40.25
80422;BMP280;69763;50.182;9.144;2023-06-26T07:16:41;99831.59;;;40.19
80422;BMP280;69763;50.182;9.144;2023-06-26T07:19:07;99842.00;;;40.29
80422;BMP280;69763;50.182;9.144;2023-06-26T07:21:32;99846.53;;;40.18
80422;BMP280;69763;50.182;9.144;2023-06-26T07:23:59;99850.63;;;40.25
80422;BMP280;69763;50.182;9.144;2023-06-26T07:26:24;99852.53;;;40.34
80422;BMP280;69763;50.182;9.144;2023-06-26T07:28:50;99849.72;;;40.61
80422;BMP280;69763;50.182;9.144;2023-06-26T07:31:15;99847.97;;;40.74
80422;BMP280;69763;50.182;9.144;2023-06-26T07:33:40;99845.22;;;40.70
80422;BMP280;69763;50.182;9.144;2023-06-26T07:36:06;99852.50;;;40.36
80422;BMP280;69763;50.182;9.144;2023-06-26T07:38:31;99848.78;;;40.71
80422;BMP280;69763;50.182;9.144;2023-06-26T07:40:58;99846.44;;;41.28
80422;BMP280;69763;50.182;9.144;2023-06-26T07:43:23;99841.50;;;41.52
80422;BMP280;69763;50.182;9.144;2023-06-26T07:45:49;99839.31;;;41.97
80422;BMP280;69763;50.182;9.144;2023-06-26T07:48:14;99836.59;;;42.16
80422;BMP280;69763;50.182;9.144;2023-06-26T07:50:39;99833.66;;;42.18
80422;BMP280;69763;50.182;9.144;2023-06-26T07:53:05;99839.84;;;42.04
80422;BMP280;69763;50.182;9.144;2023-06-26T07:55:30;99836.09;;;41.89
80422;BMP280;69763;50.182;9.144;2023-06-26T07:57:57;99844.34;;;41.02
80422;BMP280;69763;50.182;9.144;2023-06-26T08:00:23;99845.53;;;40.85
80422;BMP280;69763;50.182;9.144;2023-06-26T08:02:48;99839.97;;;41.32
80422;BMP280;69763;50.182;9.144;2023-06-26T08:05:14;99841.78;;;41.17
80422;BMP280;69763;50.182;9.144;2023-06-26T08:07:39;99843.41;;;40.59
80422;BMP280;69763;50.182;9.144;2023-06-26T08:10:05;99849.22;;;39.63
80422;BMP280;69763;50.182;9.144;2023-06-26T08:12:30;99854.44;;;38.77
80422;BMP280;69763;50.182;9.144;2023-06-26T08:14:57;99856.59;;;37.80
80422;BMP280;69763;50.182;9.144;2023-06-26T08:17:22;99852.91;;;37.92
80422;BMP280;69763;50.182;9.144;2023-06-26T08:19:48;99860.34;;;38.60
80422;BMP280;69763;50.182;9.144;2023-06-26T08:22:13;99864.34;;;39.14
80422;BMP280;69763;50.182;9.144;2023-06-26T08:24:39;99866.44;;;39.52
80422;BMP280;69763;50.182;9.144;2023-06-26T08:27:04;99862.34;;;39.78
80422;BMP280;69763;50.182;9.144;2023-06-26T08:29:29;99855.59;;;39.63
80422;BMP280;69763;50.182;9.144;2023-06-26T08:31:56;99848.81;;;39.48
80422;BMP280;69763;50.182;9.144;2023-06-26T08:34:21;99843.88;;;39.46
80422;BMP280;69763;50.182;9.144;2023-06-26T08:36:47;99834.38;;;39.91
80422;BMP280;69763;50.182;9.144;2023-06-26T08:39:12;99822.84;;;39.99
80422;BMP280;69763;50.182;9.144;2023-06-26T08:41:37;99839.78;;;39.72
80422;BMP280;69763;50.182;9.144;2023-06-26T08:44:03;99837.94;;;39.58
80422;BMP280;69763;50.182;9.144;2023-06-26T08:46:29;99841.91;;;39.74
80422;BMP280;69763;50.182;9.144;2023-06-26T08:49:01;99839.38;;;39.90
80422;BMP280;69763;50.182;9.144;2023-06-26T08:51:28;99841.38;;;39.65
80422;BMP280;69763;50.182;9.144;2023-06-26T08:53:56;99845.94;;;39.50
80422;BMP280;69763;50.182;9.144;2023-06-26T08:56:22;99840.91;;;39.52
80422;BMP280;69763;50.182;9.144;2023-06-26T08:58:48;99836.72;;;39.49
80422;BMP280;69763;50.182;9.144;2023-06-26T09:01:14;99848.84;;;39.46
80422;BMP280;69763;50.182;9.144;2023-06-26T09:03:39;99852.78;;;39.61
80422;BMP280;69763;50.182;9.144;2023-06-26T09:06:06;99850.09;;;39.20
80422;BMP280;69763;50.182;9.144;2023-06-26T09:08:32;99847.31;;;38.80
80422;BMP280;69763;50.182;9.144;2023-06-26T09:10:57;99842.69;;;38.58
80422;BMP280;69763;50.182;9.144;2023-06-26T09:13:22;99843.16;;;38.72
80422;BMP280;69763;50.182;9.144;2023-06-26T09:15:48;99854.38;;;39.17
80422;BMP280;69763;50.182;9.144;2023-06-26T09:18:17;99852.22;;;39.54
80422;BMP280;69763;50.182;9.144;2023-06-26T09:20:42;99860.06;;;39.17
80422;BMP280;69763;50.182;9.144;2023-06-26T09:23:10;99859.16;;;38.88
80422;BMP280;69763;50.182;9.144;2023-06-26T09:25:38;99861.91;;;39.31
80422;BMP280;69763;50.182;9.144;2023-06-26T09:28:04;99858.63;;;39.88
80422;BMP280;69763;50.182;9.144;2023-06-26T09:30:32;99851.59;;;39.50
80422;BMP280;69763;50.182;9.144;2023-06-26T09:32:57;99852.16;;;38.87
80422;BMP280;69763;50.182;9.144;2023-06-26T09:35:23;99843.63;;;38.44
80422;BMP280;69763;50.182;9.144;2023-06-26T09:37:49;99849.59;;;38.24
80422;BMP280;69763;50.182;9.144;2023-06-26T09:40:15;99852.84;;;38.45
80422;BMP280;69763;50.182;9.144;2023-06-26T09:42:41;99846.66;;;38.75
80422;BMP280;69763;50.182;9.144;2023-06-26T09:45:07;99845.72;;;38.89
80422;BMP280;69763;50.182;9.144;2023-06-26T09:47:33;99851.53;;;38.81
80422;BMP280;69763;50.182;9.144;2023-06-26T09:49:59;99857.81;;;38.42
80422;BMP280;69763;50.182;9.144;2023-06-26T09:52:26;99857.66;;;38.06
80422;BMP280;69763;50.182;9.144;2023-06-26T09:55:07;99858.44;;;38.00
80422;BMP280;69763;50.182;9.144;2023-06-26T09:57:34;99853.34;;;38.13
80422;BMP280;69763;50.182;9.144;2023-06-26T10:00:00;99859.56;;;38.21
80422;BMP280;69763;50.182;9.144;2023-06-26T10:02:25;99850.09;;;37.90
80422;BMP280;69763;50.182;9.144;2023-06-26T10:04:50;99857.28;;;37.22
80422;BMP280;69763;50.182;9.144;2023-06-26T10:07:16;99851.16;;;36.95
80422;BMP280;69763;50.182;9.144;2023-06-26T10:09:42;99850.72;;;36.67
80422;BMP280;69763;50.182;9.144;2023-06-26T10:12:12;99850.16;;;36.46
80422;BMP280;69763;50.182;9.144;2023-06-26T10:14:41;99859.25;;;36.59
80422;BMP280;69763;50.182;9.144;2023-06-26T10:17:09;99845.03;;;36.71
80422;BMP280;69763;50.182;9.144;2023-06-26T10:19:35;99844.38;;;36.68
80422;BMP280;69763;50.182;9.144;2023-06-26T10:22:02;99840.78;;;36.74
80422;BMP280;69763;50.182;9.144;2023-06-26T10:24:29;99847.97;;;36.57
80422;BMP280;69763;50.182;9.144;2023-06-26T10:26:59;99846.16;;;36.09
80422;BMP280;69763;50.182;9.144;2023-06-26T10:29:27;99849.00;;;36.03
80422;BMP280;69763;50.182;9.144;2023-06-26T10:31:56;99853.25;;;35.98
80422;BMP280;69763;50.182;9.144;2023-06-26T10:34:22;99849.97;;;35.27
80422;BMP280;69763;50.182;9.144;2023-06-26T10:36:58;99853.50;;;34.99
80422;BMP280;69763;50.182;9.144;2023-06-26T10:39:24;99850.53;;;34.09
80422;BMP280;69763;50.182;9.144;2023-06-26T10:41:54;99857.38;;;33.77
80422;BMP280;69763;50.182;9.144;2023-06-26T10:44:19;99856.78;;;33.89
80422;BMP280;69763;50.182;9.144;2023-06-26T10:46:49;99857.50;;;33.97
80422;BMP280;69763;50.182;9.144;2023-06-26T10:49:17;99854.09;;;34.19
80422;BMP280;69763;50.182;9.144;2023-06-26T10:51:46;99859.72;;;34.25
80422;BMP280;69763;50.182;9.144;2023-06-26T10:54:13;99858.31;;;34.26
80422;BMP280;69763;50.182;9.144;2023-06-26T10:56:43;99859.00;;;34.15
80422;BMP280;69763;50.182;9.144;2023-06-26T10:59:17;99857.94;;;33.50
80422;BMP280;69763;50.182;9.144;2023-06-26T11:01:43;99862.03;;;33.33
80422;BMP280;69763;50.182;9.144;2023-06-26T11:04:09;99867.44;;;33.02
80422;BMP280;69763;50.182;9.144;2023-06-26T11:06:37;99854.66;;;32.87
80422;BMP280;69763;50.182;9.144;2023-06-26T11:09:07;99855.59;;;33.16
80422;BMP280;69763;50.182;9.144;2023-06-26T11:11:55;99855.38;;;33.92
80422;BMP280;69763;50.182;9.144;2023-06-26T11:14:22;99853.47;;;34.51
80422;BMP280;69763;50.182;9.144;2023-06-26T11:16:48;99859.13;;;35.05
80422;BMP280;69763;50.182;9.144;2023-06-26T11:19:14;99854.22;;;35.08
80422;BMP280;69763;50.182;9.144;2023-06-26T11:21:41;99863.34;;;34.66
80422;BMP280;69763;50.182;9.144;2023-06-26T11:24:07;99866.84;;;34.56
80422;BMP280;69763;50.182;9.144;2023-06-26T11:26:38;99859.13;;;34.87
80422;BMP280;69763;50.182;9.144;2023-06-26T11:29:04;99866.88;;;34.99
80422;BMP280;69763;50.182;9.144;2023-06-26T11:31:31;99871.09;;;34.86
80422;BMP280;69763;50.182;9.144;2023-06-26T11:33:57;99880.91;;;34.56
80422;BMP280;69763;50.182;9.144;2023-06-26T11:36:23;99873.88;;;34.55
80422;BMP280;69763;50.182;9.144;2023-06-26T11:38:53;99885.06;;;34.35
80422;BMP280;69763;50.182;9.144;2023-06-26T11:41:19;99885.03;;;34.21
80422;BMP280;69763;50.182;9.144;2023-06-26T11:43:44;99883.59;;;34.16
80422;BMP280;69763;50.182;9.144;2023-06-26T11:46:10;99881.50;;;34.15
80422;BMP280;69763;50.182;9.144;2023-06-26T11:48:35;99879.44;;;34.39
80422;BMP280;69763;50.182;9.144;2023-06-26T11:51:04;99882.97;;;34.44
80422;BMP280;69763;50.182;9.144;2023-06-26T11:53:29;99877.22;;;34.04
80422;BMP280;69763;50.182;9.144;2023-06-26T11:55:56;99879.22;;;33.81
80422;BMP280;69763;50.182;9.144;2023-06-26T11:58:21;99886.59;;;33.30
80422;BMP280;69763;50.182;9.144;2023-06-26T12:00:47;99892.91;;;33.26
80422;BMP280;69763;50.182;9.144;2023-06-26T12:03:12;99898.63;;;33.43
80422;BMP280;69763;50.182;9.144;2023-06-26T12:05:38;99895.19;;;33.50
80422;BMP280;69763;50.182;9.144;2023-06-26T12:08:04;99901.63;;;33.63
80422;BMP280;69763;50.182;9.144;2023-06-26T12:10:30;99896.66;;;33.57
80422;BMP280;69763;50.182;9.144;2023-06-26T12:12:56;99903.66;;;33.56
80422;BMP280;69763;50.182;9.144;2023-06-26T12:15:22;99901.63;;;33.67
80422;BMP280;69763;50.182;9.144;2023-06-26T12:17:47;99906.53;;;33.66
80422;BMP280;69763;50.182;9.144;2023-06-26T12:20:19;99897.47;;;33.80
80422;BMP280;69763;50.182;9.144;2023-06-26T12:22:46;99891.97;;;33.98
80422;BMP280;69763;50.182;9.144;2023-06-26T12:25:11;99898.16;;;33.76
80422;BMP280;69763;50.182;9.144;2023-06-26T12:27:36;99902.41;;;33.83
80422;BMP280;69763;50.182;9.144;2023-06-26T12:30:05;99899.53;;;33.75
80422;BMP280;69763;50.182;9.144;2023-06-26T12:32:30;99905.09;;;33.61
80422;BMP280;69763;50.182;9.144;2023-06-26T12:34:57;99913.94;;;33.25
80422;BMP280;69763;50.182;9.144;2023-06-26T12:37:23;99909.22;;;32.74
80422;BMP280;69763;50.182;9.144;2023-06-26T12:39:50;99911.72;;;32.46
80422;BMP280;69763;50.182;9.144;2023-06-26T12:42:16;99909.94;;;32.17
80422;BMP280;69763;50.182;9.144;2023-06-26T12:44:42;99913.03;;;31.87
80422;BMP280;69763;50.182;9.144;2023-06-26T12:47:09;99916.41;;;31.79
80422;BMP280;69763;50.182;9.144;2023-06-26T12:49:35;99907.97;;;31.34
80422;BMP280;69763;50.182;9.144;2023-06-26T12:52:02;99917.09;;;30.96
80422;BMP280;69763;50.182;9.144;2023-06-26T12:54:28;99910.38;;;30.76
80422;BMP280;69763;50.182;9.144;2023-06-26T12:56:53;99911.13;;;30.42
80422;BMP280;69763;50.182;9.144;2023-06-26T12:59:19;99919.47;;;30.09
80422;BMP280;69763;50.182;9.144;2023-06-26T13:01:44;99910.44;;;30.12
80422;BMP280;69763;50.182;9.144;2023-06-26T13:04:11;99906.81;;;30.37
80422;BMP280;69763;50.182;9.144;2023-06-26T13:06:36;99913.66;;;30.30
80422;BMP280;69763;50.182;9.144;2023-06-26T13:09:02;99915.63;;;30.58
80422;BMP280;69763;50.182;9.144;2023-06-26T13:11:27;99910.50;;;30.46
80422;BMP280;69763;50.182;9.144;2023-06-26T13:13:53;99912.06;;;30.21
80422;BMP280;69763;50.182;9.144;2023-06-26T13:16:18;99911.13;;;29.81
80422;BMP280;69763;50.182;9.144;2023-06-26T13:18:43;99910.38;;;29.51
80422;BMP280;69763;50.182;9.144;2023-06-26T13:21:10;99909.03;;;29.52
80422;BMP280;69763;50.182;9.144;2023-06-26T13:23:35;99903.75;;;29.36
80422;BMP280;69763;50.182;9.144;2023-06-26T13:26:01;99908.09;;;29.43
80422;BMP280;69763;50.182;9.144;2023-06-26T13:28:26;99904.00;;;30.04
80422;BMP280;69763;50.182;9.144;2023-06-26T13:30:51;99913.59;;;29.97
80422;BMP280;69763;50.182;9.144;2023-06-26T13:33:17;99930.63;;;29.79
80422;BMP280;69763;50.182;9.144;2023-06-26T13:35:42;99920.47;;;29.91
80422;BMP280;69763;50.182;9.144;2023-06-26T13:38:08;99923.78;;;30.45
80422;BMP280;69763;50.182;9.144;2023-06-26T13:40:34;99927.25;;;31.15
80422;BMP280;69763;50.182;9.144;2023-06-26T13:42:59;99933.19;;;31.75
80422;BMP280;69763;50.182;9.144;2023-06-26T13:45:25;99928.56;;;31.96
80422;BMP280;69763;50.182;9.144;2023-06-26T13:47:50;99926.44;;;31.93
80422;BMP280;69763;50.182;9.144;2023-06-26T13:50:15;99915.13;;;31.43
80422;BMP280;69763;50.182;9.144;2023-06-26T13:52:41;99924.41;;;31.11
80422;BMP280;69763;50.182;9.144;2023-06-26T13:55:08;99926.50;;;31.11
80422;BMP280;69763;50.182;9.144;2023-06-26T13:57:34;99925.91;;;31.18
80422;BMP280;69763;50.182;9.144;2023-06-26T13:59:59;99929.25;;;31.09
80422;BMP280;69763;50.182;9.144;2023-06-26T14:02:24;99927.31;;;30.82
80422;BMP280;69763;50.182;9.144;2023-06-26T14:04:50;99929.34;;;30.43